createdAt,value
2019-05-15T00:00:58.835Z,1.22
2019-05-15T00:03:25.165Z,1.02
2019-05-15T00:05:51.268Z,1.20
2019-05-15T00:08:18.347Z,1.02
2019-05-15T00:10:44.377Z,1.07
2019-05-15T00:13:10.299Z,4.10
2019-05-15T00:15:36.906Z,1.60
2019-05-15T00:18:03.007Z,3.47
2019-05-15T00:20:29.510Z,5.80
2019-05-15T00:22:55.753Z,7.20
2019-05-15T00:25:22.806Z,1.82
2019-05-15T00:27:49.286Z,1.02
2019-05-15T00:30:15.484Z,1.47
2019-05-15T00:32:41.539Z,1.42
2019-05-15T00:35:09.467Z,1.30
2019-05-15T00:37:35.685Z,1.50
2019-05-15T00:40:02.569Z,1.15
2019-05-15T00:42:28.769Z,1.75
2019-05-15T00:44:54.794Z,1.10
2019-05-15T00:47:20.916Z,1.10
2019-05-15T00:49:48.831Z,1.00
2019-05-15T00:52:15.093Z,1.27
2019-05-15T00:54:41.190Z,1.05
2019-05-15T00:57:08.563Z,1.00
2019-05-15T00:59:34.737Z,1.00
2019-05-15T01:02:00.640Z,0.93
2019-05-15T01:04:28.031Z,1.05
2019-05-15T01:06:54.402Z,1.17
2019-05-15T01:09:20.409Z,1.00
2019-05-15T01:11:48.629Z,1.35
2019-05-15T01:14:14.318Z,1.00
2019-05-15T01:16:40.417Z,1.27
2019-05-15T01:19:06.521Z,1.25
2019-05-15T01:21:32.608Z,1.10
2019-05-15T01:23:58.998Z,1.17
2019-05-15T01:26:25.222Z,1.10
2019-05-15T01:28:51.368Z,1.30
2019-05-15T01:31:19.083Z,1.25
2019-05-15T01:33:45.183Z,1.27
2019-05-15T01:36:11.200Z,1.25
2019-05-15T01:38:38.943Z,1.20
2019-05-15T01:41:05.006Z,1.40
2019-05-15T01:43:31.020Z,1.17
2019-05-15T01:45:58.874Z,1.10
2019-05-15T01:48:25.040Z,1.00
2019-05-15T01:50:51.155Z,1.20
2019-05-15T01:53:18.675Z,1.00
2019-05-15T01:55:44.974Z,1.35
2019-05-15T01:58:10.980Z,1.17
2019-05-15T02:00:39.191Z,1.00
2019-05-15T02:03:05.023Z,1.00
2019-05-15T02:05:31.123Z,1.10
2019-05-15T02:07:58.542Z,1.02
2019-05-15T02:10:24.784Z,1.30
2019-05-15T02:12:50.724Z,1.15
2019-05-15T02:15:18.983Z,1.20
2019-05-15T02:17:45.094Z,1.27
2019-05-15T02:20:11.606Z,0.90
2019-05-15T02:22:42.151Z,0.95
2019-05-15T02:25:08.258Z,1.25
2019-05-15T02:27:33.920Z,1.00
2019-05-15T02:30:15.941Z,0.80
2019-05-15T02:32:30.157Z,1.10
2019-05-15T02:34:58.868Z,1.02
2019-05-15T02:37:23.736Z,1.00
2019-05-15T02:39:49.825Z,0.88
2019-05-15T02:42:15.788Z,0.90
2019-05-15T02:44:41.787Z,1.00
2019-05-15T02:47:09.266Z,1.10
2019-05-15T02:49:35.410Z,0.98
2019-05-15T02:52:01.567Z,0.90
2019-05-15T02:54:29.927Z,0.90
2019-05-15T02:56:58.815Z,0.82
2019-05-15T02:59:23.609Z,0.72
2019-05-15T03:01:49.758Z,1.02
2019-05-15T03:04:15.855Z,0.82
2019-05-15T03:06:41.987Z,0.80
2019-05-15T03:09:09.576Z,0.98
2019-05-15T03:11:35.901Z,0.70
2019-05-15T03:14:02.141Z,0.90
2019-05-15T03:16:30.281Z,0.80
2019-05-15T03:18:59.566Z,0.95
2019-05-15T03:21:24.584Z,0.90
2019-05-15T03:23:51.003Z,0.95
2019-05-15T03:26:19.798Z,0.80
2019-05-15T03:28:45.204Z,0.70
2019-05-15T03:31:32.541Z,0.65
2019-05-15T03:33:45.851Z,0.95
2019-05-15T03:36:12.418Z,0.90
2019-05-15T03:38:35.250Z,0.75
2019-05-15T03:41:01.376Z,0.80
2019-05-15T03:43:29.308Z,0.70
2019-05-15T03:45:55.611Z,1.05
2019-05-15T03:48:21.726Z,0.90
2019-05-15T03:50:48.826Z,0.70
2019-05-15T03:53:15.158Z,0.70
2019-05-15T03:55:41.263Z,0.60
2019-05-15T03:58:09.928Z,0.70
2019-05-15T04:00:35.285Z,0.60
2019-05-15T04:03:01.305Z,0.70
2019-05-15T04:05:29.377Z,0.62
2019-05-15T04:07:55.439Z,0.80
2019-05-15T04:10:21.566Z,0.60
2019-05-15T04:12:49.264Z,0.60
2019-05-15T04:15:18.570Z,0.75
2019-05-15T04:17:43.749Z,0.90
2019-05-15T04:20:10.918Z,0.80
2019-05-15T04:22:39.951Z,0.75
2019-05-15T04:25:05.999Z,0.70
2019-05-15T04:27:33.789Z,0.70
2019-05-15T04:29:59.917Z,0.70
2019-05-15T04:32:28.947Z,0.50
2019-05-15T04:34:54.059Z,0.70
2019-05-15T04:37:20.157Z,0.78
2019-05-15T04:39:48.961Z,0.80
2019-05-15T04:42:14.210Z,0.78
2019-05-15T04:44:40.316Z,0.68
2019-05-15T04:47:09.455Z,0.80
2019-05-15T04:49:34.471Z,0.68
2019-05-15T04:52:03.639Z,1.17
2019-05-15T04:54:28.992Z,2.47
2019-05-15T04:56:55.128Z,1.05
2019-05-15T04:59:21.142Z,2.67
2019-05-15T05:01:51.294Z,1.55
2019-05-15T05:04:18.720Z,1.40
2019-05-15T05:06:43.711Z,0.98
2019-05-15T05:09:09.708Z,1.00
2019-05-15T05:11:38.329Z,0.90
2019-05-15T05:14:04.519Z,1.52
2019-05-15T05:16:30.618Z,1.35
2019-05-15T05:18:59.256Z,1.02
2019-05-15T05:21:24.774Z,0.88
2019-05-15T05:23:50.892Z,0.90
2019-05-15T05:26:18.488Z,1.07
2019-05-15T05:28:44.918Z,1.00
2019-05-15T05:31:14.030Z,0.82
2019-05-15T05:33:39.028Z,0.80
2019-05-15T05:36:05.155Z,0.90
2019-05-15T05:38:31.272Z,0.95
2019-05-15T05:40:58.623Z,0.95
2019-05-15T05:43:25.215Z,1.20
2019-05-15T05:45:51.323Z,1.27
2019-05-15T05:48:18.742Z,1.70
2019-05-15T05:50:45.775Z,1.27
2019-05-15T05:53:11.903Z,2.95
2019-05-15T05:55:38.522Z,1.98
2019-05-15T05:58:04.763Z,1.35
2019-05-15T06:00:34.073Z,1.70
2019-05-15T06:05:28.098Z,1.57
2019-05-15T06:07:54.104Z,3.20
2019-05-15T06:10:20.113Z,2.35
2019-05-15T06:12:46.140Z,2.85
2019-05-15T06:15:12.589Z,1.98
2019-05-15T06:17:39.431Z,2.10
2019-05-15T06:20:07.997Z,2.00
2019-05-15T06:22:33.887Z,1.98
2019-05-15T06:24:59.805Z,2.60
2019-05-15T06:27:27.980Z,2.37
2019-05-15T06:29:53.771Z,2.05
2019-05-15T06:32:19.891Z,2.12
2019-05-15T06:34:45.813Z,3.65
2019-05-15T06:37:11.928Z,2.67
2019-05-15T06:39:39.129Z,2.77
2019-05-15T06:42:05.267Z,2.58
2019-05-15T06:44:31.414Z,2.60
2019-05-15T06:46:58.773Z,3.02
2019-05-15T06:49:24.971Z,1.85
2019-05-15T06:51:50.908Z,3.20
2019-05-15T06:54:18.906Z,2.25
2019-05-15T06:56:45.043Z,3.37
2019-05-15T06:59:11.031Z,9.88
2019-05-15T07:01:38.557Z,5.37
2019-05-15T07:04:05.004Z,12.88
2019-05-15T07:06:31.131Z,44.15
2019-05-15T07:08:58.631Z,4.30
2019-05-15T07:11:24.839Z,3.15
2019-05-15T07:13:50.951Z,6.50
2019-05-15T07:16:18.227Z,11.50
2019-05-15T07:18:44.268Z,5.33
2019-05-15T07:21:10.722Z,2.80
2019-05-15T07:23:38.657Z,2.58
2019-05-15T07:26:04.913Z,2.92
2019-05-15T07:28:30.926Z,6.25
2019-05-15T07:30:58.327Z,3.10
2019-05-15T07:33:38.833Z,4.10
2019-05-15T07:35:52.437Z,3.27
2019-05-15T07:38:18.551Z,2.87
2019-05-15T07:40:44.692Z,3.00
2019-05-15T07:43:10.567Z,2.50
2019-05-15T07:45:42.665Z,2.77
2019-05-15T07:48:04.729Z,3.30
2019-05-15T07:50:30.865Z,2.77
2019-05-15T07:52:59.015Z,2.52
2019-05-15T07:55:25.011Z,3.50
2019-05-15T07:57:51.201Z,4.37
2019-05-15T08:00:19.553Z,6.83
2019-05-15T08:02:47.835Z,3.27
2019-05-15T08:05:18.090Z,3.75
2019-05-15T08:07:43.832Z,2.80
2019-05-15T08:10:10.523Z,2.75
2019-05-15T08:12:38.933Z,3.40
2019-05-15T08:15:08.904Z,2.77
2019-05-15T08:17:35.121Z,2.67
2019-05-15T08:20:01.231Z,2.65
2019-05-15T08:22:28.489Z,3.00
2019-05-15T08:24:54.719Z,2.70
2019-05-15T08:27:23.611Z,2.37
2019-05-15T08:29:48.841Z,2.30
2019-05-15T08:32:14.961Z,2.50
2019-05-15T08:34:41.074Z,3.60
2019-05-15T08:37:07.980Z,2.62
2019-05-15T08:39:34.187Z,1.92
2019-05-15T08:42:00.099Z,2.00
2019-05-15T08:44:26.103Z,1.90
2019-05-15T08:46:52.060Z,2.10
2019-05-15T08:49:20.357Z,1.95
2019-05-15T08:51:48.477Z,2.02
2019-05-15T08:54:14.060Z,2.52
2019-05-15T08:56:40.175Z,2.25
2019-05-15T08:59:08.697Z,2.37
2019-05-15T09:01:34.533Z,2.15
2019-05-15T09:04:00.636Z,2.85
2019-05-15T09:06:29.199Z,3.10
2019-05-15T09:08:54.551Z,2.02
2019-05-15T09:11:20.663Z,2.22
2019-05-15T09:13:52.804Z,2.12
2019-05-15T09:16:14.684Z,2.37
2019-05-15T09:18:40.793Z,3.92
2019-05-15T09:21:08.815Z,3.45
2019-05-15T09:23:34.908Z,3.55
2019-05-15T09:26:01.024Z,3.50
2019-05-15T09:28:29.681Z,2.77
2019-05-15T09:30:55.054Z,2.52
2019-05-15T09:33:21.063Z,2.25
2019-05-15T09:35:49.101Z,3.35
2019-05-15T09:38:15.241Z,2.65
2019-05-15T09:40:46.172Z,3.17
2019-05-15T09:43:10.788Z,2.75
2019-05-15T09:45:38.125Z,2.45
2019-05-15T09:48:04.648Z,2.70
2019-05-15T09:50:30.784Z,3.37
2019-05-15T09:52:58.832Z,2.98
2019-05-15T09:55:24.840Z,2.20
2019-05-15T09:57:50.977Z,2.30
2019-05-15T10:00:18.998Z,2.52
2019-05-15T10:02:45.301Z,3.20
2019-05-15T10:05:12.482Z,2.77
2019-05-15T10:07:40.363Z,2.20
2019-05-15T10:10:08.751Z,2.60
2019-05-15T10:12:35.445Z,2.27
2019-05-15T10:15:05.296Z,2.47
2019-05-15T10:17:31.418Z,2.52
2019-05-15T10:19:58.288Z,2.22
2019-05-15T10:22:24.575Z,2.50
2019-05-15T10:24:51.113Z,2.47
2019-05-15T10:27:18.070Z,2.45
2019-05-15T10:29:44.149Z,3.35
2019-05-15T10:32:10.263Z,4.55
2019-05-15T10:34:38.481Z,4.12
2019-05-15T10:37:04.710Z,2.75
2019-05-15T10:39:31.416Z,2.50
2019-05-15T10:41:57.528Z,2.55
2019-05-15T10:44:23.565Z,3.00
2019-05-15T10:46:49.573Z,2.33
2019-05-15T10:49:15.678Z,2.12
2019-05-15T10:51:41.784Z,2.00
2019-05-15T10:54:08.501Z,2.72
2019-05-15T10:56:34.692Z,2.30
2019-05-15T10:59:00.832Z,2.22
2019-05-15T11:01:26.887Z,2.77
2019-05-15T11:03:52.981Z,1.92
2019-05-15T11:06:19.088Z,1.87
2019-05-15T11:08:45.191Z,2.47
2019-05-15T11:11:11.299Z,1.90
2019-05-15T11:13:38.160Z,1.92
2019-05-15T11:16:04.440Z,2.15
2019-05-15T11:18:30.840Z,1.82
2019-05-15T11:20:59.318Z,2.10
2019-05-15T11:23:25.064Z,1.98
2019-05-15T11:25:51.166Z,2.15
2019-05-15T11:28:17.284Z,2.27
2019-05-15T11:30:43.389Z,2.10
2019-05-15T11:33:09.830Z,1.50
2019-05-15T11:35:35.976Z,1.70
2019-05-15T11:38:02.082Z,1.98
2019-05-15T11:40:28.441Z,2.35
2019-05-15T11:42:54.512Z,2.50
2019-05-15T11:45:20.729Z,2.35
2019-05-15T11:47:48.321Z,2.02
2019-05-15T11:50:15.185Z,2.08
2019-05-15T11:52:41.318Z,2.30
2019-05-15T11:55:08.508Z,1.75
2019-05-15T11:57:42.325Z,1.65
2019-05-15T12:00:04.742Z,2.40
2019-05-15T12:02:31.127Z,1.80
2019-05-15T12:04:58.395Z,1.98
2019-05-15T12:07:24.652Z,2.98
2019-05-15T12:09:52.096Z,2.52
2019-05-15T12:12:18.258Z,1.95
2019-05-15T12:14:44.244Z,2.10
2019-05-15T12:17:15.171Z,2.00
2019-05-15T12:19:39.114Z,2.47
2019-05-15T12:22:05.376Z,2.30
2019-05-15T12:24:36.514Z,2.10
2019-05-15T12:29:28.551Z,2.10
2019-05-15T12:31:54.982Z,1.85
2019-05-15T12:34:21.080Z,2.00
2019-05-15T12:36:53.067Z,2.33
2019-05-15T12:39:20.711Z,2.55
2019-05-15T13:01:29.549Z,1.87
2019-05-15T13:03:57.848Z,2.05
2019-05-15T13:06:23.723Z,1.85
2019-05-15T13:08:49.817Z,1.87
2019-05-15T13:11:17.874Z,2.90
2019-05-15T13:13:43.969Z,3.33
2019-05-15T13:16:10.113Z,2.95
2019-05-15T13:18:38.623Z,2.60
2019-05-15T13:21:04.225Z,2.75
2019-05-15T13:23:30.246Z,2.42
2019-05-15T13:25:58.772Z,3.20
2019-05-15T13:28:24.385Z,2.80
2019-05-15T13:30:50.487Z,7.60
2019-05-15T13:33:16.587Z,5.60
2019-05-15T13:35:45.513Z,79.35
2019-05-15T13:38:10.554Z,5.17
2019-05-15T13:40:38.913Z,6.30
2019-05-15T13:43:04.687Z,4.00
2019-05-15T13:45:30.725Z,3.70
2019-05-15T13:47:56.863Z,4.05
2019-05-15T13:50:22.968Z,3.42
2019-05-15T13:52:48.988Z,4.17
2019-05-15T13:55:15.144Z,4.33
2019-05-15T13:57:41.859Z,5.10
2019-05-15T14:00:08.928Z,4.05
2019-05-15T14:02:35.189Z,3.42
2019-05-15T14:05:01.337Z,8.35
2019-05-15T14:07:33.125Z,5.62
2019-05-15T14:09:59.690Z,3.10
2019-05-15T14:12:24.058Z,2.87
2019-05-15T14:14:50.218Z,2.20
2019-05-15T14:17:16.325Z,2.10
2019-05-15T14:19:42.460Z,2.22
2019-05-15T14:22:08.396Z,3.15
2019-05-15T14:24:34.503Z,4.08
2019-05-15T14:27:00.614Z,3.15
2019-05-15T14:29:28.949Z,2.85
2019-05-15T14:31:54.539Z,4.00
2019-05-15T14:34:20.560Z,3.90
2019-05-15T14:36:48.307Z,4.08
2019-05-15T14:39:14.526Z,2.52
2019-05-15T14:41:40.735Z,3.02
2019-05-15T14:44:16.767Z,2.58
2019-05-15T14:46:34.690Z,3.33
2019-05-15T14:49:00.802Z,3.08
2019-05-15T14:51:28.530Z,5.40
2019-05-15T14:53:54.777Z,7.85
2019-05-15T14:56:21.338Z,9.73
2019-05-15T14:58:48.037Z,22.52
2019-05-15T15:01:14.311Z,24.30
2019-05-15T15:03:40.477Z,11.45
2019-05-15T15:06:08.663Z,7.70
2019-05-15T15:08:34.547Z,6.95
2019-05-15T15:11:00.569Z,5.97
2019-05-15T15:13:28.797Z,4.37
2019-05-15T15:15:55.035Z,3.12
2019-05-15T15:18:21.173Z,3.35
2019-05-15T15:20:48.441Z,5.25
2019-05-15T15:23:14.716Z,29.15
2019-05-15T15:25:40.734Z,28.85
2019-05-15T15:28:08.374Z,27.73
2019-05-15T15:30:34.725Z,24.85
2019-05-15T15:33:01.431Z,28.12
2019-05-15T15:35:28.918Z,24.00
2019-05-15T15:37:55.212Z,17.20
2019-05-15T15:40:21.320Z,10.28
2019-05-15T15:42:48.507Z,6.40
2019-05-15T15:45:15.471Z,9.95
2019-05-15T15:47:41.603Z,26.90
2019-05-15T15:50:09.457Z,37.70
2019-05-15T15:52:38.319Z,38.53
2019-05-15T15:55:04.560Z,31.65
2019-05-15T15:57:30.606Z,38.00
2019-05-15T15:59:56.704Z,40.60
2019-05-15T16:02:22.844Z,39.45
2019-05-15T16:04:48.896Z,40.95
2019-05-15T16:07:15.020Z,31.73
2019-05-15T16:09:41.131Z,62.95
2019-05-15T16:12:09.680Z,36.63
2019-05-15T16:14:35.364Z,33.83
2019-05-15T16:17:01.510Z,42.27
2019-05-15T16:19:28.353Z,39.40
2019-05-15T16:21:54.826Z,32.85
2019-05-15T16:24:21.920Z,22.90
2019-05-15T16:26:49.826Z,20.17
2019-05-15T16:29:18.288Z,19.10
2019-05-15T16:31:44.557Z,25.53
2019-05-15T16:34:10.872Z,18.52
2019-05-15T16:36:38.524Z,18.90
2019-05-15T16:39:09.182Z,17.62
2019-05-15T16:41:33.303Z,15.60
2019-05-15T16:43:59.444Z,19.98
2019-05-15T16:46:25.461Z,25.70
2019-05-15T16:48:51.508Z,27.93
2019-05-15T16:51:18.023Z,26.45
2019-05-15T16:53:44.228Z,21.27
2019-05-15T16:56:10.253Z,24.10
2019-05-15T16:58:38.496Z,18.80
2019-05-15T17:01:04.305Z,21.33
2019-05-15T17:03:30.420Z,22.55
2019-05-15T17:05:58.552Z,22.40
2019-05-15T17:08:24.447Z,21.00
2019-05-15T17:10:50.750Z,20.10
2019-05-15T17:13:16.752Z,21.48
2019-05-15T17:15:42.859Z,24.02
2019-05-15T17:18:09.137Z,26.27
2019-05-15T17:20:35.275Z,23.92
2019-05-15T17:23:01.212Z,23.47
2019-05-15T17:25:27.355Z,21.55
2019-05-15T17:27:53.301Z,25.10
2019-05-15T17:30:19.518Z,27.98
2019-05-15T17:32:45.845Z,30.95
2019-05-15T17:35:12.131Z,28.87
2019-05-15T17:37:38.929Z,25.12
2019-05-15T17:40:05.690Z,25.32
2019-05-15T17:42:31.705Z,25.30
2019-05-15T17:44:58.022Z,25.68
2019-05-15T17:47:24.136Z,22.22
2019-05-15T17:49:50.137Z,21.37
2019-05-15T17:52:18.333Z,18.52
2019-05-15T17:54:45.164Z,16.77
2019-05-15T17:57:11.513Z,20.68
2019-05-15T17:59:37.972Z,19.60
2019-05-15T18:02:04.267Z,17.45
2019-05-15T18:04:30.270Z,16.62
2019-05-15T18:06:58.897Z,20.20
2019-05-15T18:09:24.430Z,33.33
2019-05-15T18:11:50.542Z,26.55
2019-05-15T18:14:16.651Z,18.80
2019-05-15T18:16:42.852Z,14.20
2019-05-15T18:19:08.984Z,16.15
2019-05-15T18:21:38.129Z,16.23
2019-05-15T18:24:04.630Z,13.30
2019-05-15T18:26:30.744Z,13.88
2019-05-15T18:28:58.567Z,13.10
2019-05-15T18:31:24.787Z,17.05
2019-05-15T18:33:53.663Z,21.60
2019-05-15T18:36:18.698Z,24.43
2019-05-15T18:38:44.602Z,33.70
2019-05-15T18:41:10.711Z,20.35
2019-05-15T18:43:37.791Z,14.60
2019-05-15T18:46:04.033Z,17.12
2019-05-15T18:48:30.053Z,22.20
2019-05-15T18:50:56.156Z,29.37
2019-05-15T18:53:22.264Z,31.82
2019-05-15T18:55:48.811Z,37.83
2019-05-15T18:58:15.304Z,40.73
2019-05-15T19:00:41.420Z,46.50
2019-05-15T19:03:19.088Z,48.30
2019-05-15T19:05:35.576Z,39.40
2019-05-15T19:08:01.680Z,45.25
2019-05-15T19:10:28.353Z,35.75
2019-05-15T19:12:54.409Z,53.50
2019-05-15T19:15:20.529Z,32.75
2019-05-15T19:17:47.804Z,28.00
2019-05-15T19:20:15.309Z,24.65
2019-05-15T19:22:41.428Z,33.13
2019-05-15T19:25:08.851Z,24.60
2019-05-15T19:27:35.224Z,27.10
2019-05-15T19:30:01.525Z,28.00
2019-05-15T19:32:27.936Z,24.80
2019-05-15T19:34:54.153Z,20.88
2019-05-15T19:37:20.276Z,19.40
2019-05-15T19:39:47.974Z,16.35
2019-05-15T19:42:14.294Z,21.75
2019-05-15T19:44:40.398Z,36.38
2019-05-15T19:47:07.953Z,10.82
2019-05-15T19:49:34.039Z,8.03
2019-05-15T19:52:00.087Z,10.23
2019-05-15T19:54:26.331Z,13.05
2019-05-15T19:56:52.982Z,14.35
2019-05-15T19:59:22.396Z,11.10
2019-05-15T20:01:48.606Z,12.58
2019-05-15T20:04:14.862Z,15.90
2019-05-15T20:06:40.998Z,14.55
2019-05-15T20:09:07.777Z,23.27
2019-05-15T20:11:34.068Z,23.85
2019-05-15T20:14:00.083Z,22.77
2019-05-15T20:16:28.190Z,20.55
2019-05-15T20:18:54.123Z,23.75
2019-05-15T20:21:20.395Z,11.57
2019-05-15T20:23:48.497Z,7.17
2019-05-15T20:26:14.343Z,3.83
2019-05-15T20:28:40.351Z,4.17
2019-05-15T20:31:07.939Z,5.67
2019-05-15T20:33:34.187Z,6.65
2019-05-15T20:36:00.292Z,7.75
2019-05-15T20:38:28.534Z,5.35
2019-05-15T20:40:54.411Z,3.35
2019-05-15T20:43:20.517Z,2.37
2019-05-15T20:45:48.409Z,2.37
2019-05-15T20:48:14.544Z,2.55
2019-05-15T20:50:40.451Z,10.65
2019-05-15T20:53:06.547Z,9.83
2019-05-15T20:55:32.648Z,4.28
2019-05-15T20:57:58.862Z,4.42
2019-05-15T21:00:25.072Z,11.22
2019-05-15T21:02:51.090Z,4.35
2019-05-15T21:05:18.687Z,5.25
2019-05-15T21:07:44.904Z,9.23
2019-05-15T21:10:11.320Z,5.70
2019-05-15T21:12:40.528Z,4.75
2019-05-15T21:15:08.399Z,2.02
2019-05-15T21:17:34.232Z,2.30
2019-05-15T21:20:01.194Z,4.17
2019-05-15T21:22:28.321Z,3.45
2019-05-15T21:24:54.454Z,1.50
2019-05-15T21:27:24.313Z,2.02
2019-05-15T21:29:49.015Z,2.30
2019-05-15T21:32:15.391Z,1.92
2019-05-15T21:34:44.366Z,1.90
2019-05-15T21:37:09.802Z,13.50
2019-05-15T21:39:35.889Z,7.80
2019-05-15T21:42:01.918Z,7.20
2019-05-15T21:44:29.345Z,9.55
2019-05-15T21:46:55.570Z,8.40
2019-05-15T21:49:21.577Z,8.90
2019-05-15T21:51:48.008Z,3.75
2019-05-15T21:54:14.120Z,3.60
2019-05-15T21:56:40.397Z,1.57
2019-05-15T21:59:08.217Z,2.25
2019-05-15T22:01:34.576Z,4.45
2019-05-15T22:04:00.718Z,4.25
2019-05-15T22:06:29.087Z,5.22
2019-05-15T22:08:54.741Z,2.12
2019-05-15T22:11:21.917Z,2.75
2019-05-15T22:13:48.540Z,2.33
2019-05-15T22:16:15.015Z,2.50
2019-05-15T22:18:41.416Z,1.32
2019-05-15T22:21:07.957Z,1.27
2019-05-15T22:23:34.029Z,1.50
2019-05-15T22:26:00.138Z,1.40
2019-05-15T22:28:28.250Z,2.10
2019-05-15T22:30:54.269Z,1.82
2019-05-15T22:33:20.274Z,2.08
2019-05-15T22:35:48.879Z,2.85
2019-05-15T22:38:14.655Z,3.27
2019-05-15T22:40:41.382Z,4.62
2019-05-15T22:43:07.801Z,5.17
2019-05-15T22:45:37.615Z,5.60
2019-05-15T22:48:03.512Z,6.15
2019-05-15T22:50:29.621Z,6.42
2019-05-15T22:52:58.390Z,5.35
2019-05-15T22:55:23.755Z,5.12
2019-05-15T22:57:49.687Z,5.08
2019-05-15T23:00:16.494Z,5.08
2019-05-15T23:02:42.957Z,4.83
2019-05-15T23:05:23.158Z,5.12
2019-05-15T23:07:38.988Z,4.60
2019-05-15T23:10:06.029Z,4.60
2019-05-15T23:12:32.134Z,4.25
2019-05-15T23:14:58.264Z,3.47
2019-05-15T23:17:24.269Z,3.25
2019-05-15T23:19:50.300Z,4.37
2019-05-15T23:22:18.539Z,3.62
2019-05-15T23:24:44.238Z,3.77
2019-05-15T23:27:10.341Z,4.05
2019-05-15T23:29:38.526Z,3.90
2019-05-15T23:32:04.461Z,3.62
2019-05-15T23:34:30.507Z,3.22
2019-05-15T23:36:57.714Z,3.70
2019-05-15T23:39:23.817Z,3.65
2019-05-15T23:41:49.866Z,3.25
2019-05-15T23:44:18.231Z,3.92
2019-05-15T23:46:43.898Z,4.15
2019-05-15T23:49:09.903Z,3.70
2019-05-15T23:51:38.330Z,3.40
2019-05-15T23:54:03.953Z,3.90
2019-05-15T23:56:30.097Z,3.72
2019-05-15T23:58:55.999Z,2.77
